Time;durP1;ratioP1;P1;durP2;ratioP2;P2;SDS_P1;SDS_P2;PMS_P1;PMS_P2;Temp;Humidity;BMP_temperature;BMP_pressure;BME280_temperature;BME280_humidity;BME280_pressure;Samples;Min_cycle;Max_cycle;Signal;HPM_P1;HPM_P2
2022/09/03 00:01:42;;;;;;;2.13;1.13;;;14.90;99.90;;;;;;5072128;28;21419;-48
2022/09/03 00:04:16;;;;;;;1.70;1.33;;;14.40;99.90;;;;;;5071190;28;20464;-48
2022/09/03 00:06:48;;;;;;;1.63;1.20;;;14.50;99.90;;;;;;5072316;28;20472;-47
2022/09/03 00:09:23;;;;;;;1.60;1.30;;;14.50;99.90;;;;;;5071617;28;20465;-48
2022/09/03 00:11:55;;;;;;;2.63;1.70;;;14.70;99.90;;;;;;5072373;28;20460;-48
2022/09/03 00:14:26;;;;;;;2.00;1.30;;;15.00;99.90;;;;;;5071935;28;20448;-49
2022/09/03 00:16:57;;;;;;;3.00;1.30;;;15.10;99.90;;;;;;5071599;28;20455;-49
2022/09/03 00:19:28;;;;;;;2.07;1.53;;;15.10;99.90;;;;;;5071439;28;20489;-48
2022/09/03 00:21:59;;;;;;;1.97;1.37;;;15.00;99.90;;;;;;5071779;28;20789;-49
2022/09/03 00:24:33;;;;;;;1.70;1.00;;;14.40;99.90;;;;;;5071912;28;20500;-48
2022/09/03 00:27:05;;;;;;;1.60;1.23;;;14.70;99.90;;;;;;5071357;28;20988;-48
2022/09/03 00:29:38;;;;;;;1.50;1.27;;;14.60;99.90;;;;;;5071239;28;20853;-49
2022/09/03 00:32:10;;;;;;;2.00;1.33;;;14.90;99.90;;;;;;5071816;28;20952;-49
2022/09/03 00:34:41;;;;;;;1.87;1.10;;;14.90;99.90;;;;;;5071951;28;20551;-48
2022/09/03 00:37:09;;;;;;;1.60;1.30;;;15.00;99.90;;;;;;5071819;28;20452;-48
2022/09/03 00:39:38;;;;;;;3.30;1.17;;;15.10;99.90;;;;;;5071006;28;20452;-48
2022/09/03 00:42:23;;;;;;;1.83;1.00;;;15.10;99.90;;;;;;5071546;28;20456;-50
2022/09/03 00:45:09;;;;;;;1.87;1.50;;;15.00;99.90;;;;;;5071205;28;20477;-49
2022/09/03 00:47:46;;;;;;;2.03;1.33;;;14.80;99.90;;;;;;5071312;28;20962;-48
2022/09/03 00:50:24;;;;;;;2.17;1.20;;;14.40;99.90;;;;;;5070999;28;20198;-48
2022/09/03 00:52:59;;;;;;;2.23;1.20;;;14.30;99.90;;;;;;5071466;28;20520;-50
2022/09/03 00:55:38;;;;;;;3.63;1.20;;;14.40;99.90;;;;;;5071427;28;20428;-49
2022/09/03 00:58:23;;;;;;;1.73;1.40;;;14.80;99.90;;;;;;5071510;28;20456;-48
2022/09/03 01:00:52;;;;;;;2.67;1.50;;;15.00;99.90;;;;;;5070683;28;20452;-49
2022/09/03 01:03:26;;;;;;;1.97;1.13;;;14.70;99.90;;;;;;5070020;28;20444;-48
2022/09/03 01:06:07;;;;;;;1.60;1.20;;;14.20;99.90;;;;;;5071117;28;20489;-48
2022/09/03 01:08:50;;;;;;;2.23;1.27;;;14.70;99.90;;;;;;5070993;28;20469;-49
2022/09/03 01:11:27;;;;;;;2.50;1.30;;;14.90;99.90;;;;;;5070925;28;20444;-49
2022/09/03 01:14:05;;;;;;;1.83;1.10;;;14.40;99.90;;;;;;5070890;28;20533;-48
2022/09/03 01:16:40;;;;;;;1.60;1.30;;;14.30;99.90;;;;;;5070707;28;21013;-48
2022/09/03 01:19:24;;;;;;;2.23;1.37;;;14.40;99.90;;;;;;5070254;28;20521;-50
2022/09/03 01:22:07;;;;;;;2.15;1.50;;;14.30;99.90;;;;;;5070965;28;20651;-48
2022/09/03 01:24:58;;;;;;;2.23;1.60;;;14.70;99.90;;;;;;5070730;28;20225;-49
2022/09/03 01:27:39;;;;;;;1.90;1.30;;;14.90;99.90;;;;;;5070047;28;20511;-49
2022/09/03 01:30:17;;;;;;;1.80;1.30;;;14.90;99.90;;;;;;5069985;28;20205;-50
2022/09/03 01:32:51;;;;;;;1.83;1.50;;;14.50;99.90;;;;;;5070663;28;20529;-49
2022/09/03 01:35:27;;;;;;;3.40;1.40;;;14.70;99.90;;;;;;5070607;28;20436;-48
2022/09/03 01:38:07;;;;;;;1.80;1.13;;;14.70;99.90;;;;;;5070785;28;20448;-48
2022/09/03 01:40:42;;;;;;;3.93;1.90;;;14.50;99.90;;;;;;5069566;28;20440;-49
2022/09/03 01:43:34;;;;;;;2.80;1.40;;;14.70;99.90;;;;;;5070463;28;20552;-49
2022/09/03 01:46:12;;;;;;;3.25;1.10;;;14.70;99.90;;;;;;5070454;28;20471;-49
2022/09/03 01:48:46;;;;;;;1.93;1.43;;;14.70;99.90;;;;;;5070070;28;20190;-50
2022/09/03 01:51:21;;;;;;;2.70;1.40;;;14.80;99.90;;;;;;5070302;28;20459;-49
2022/09/03 01:54:32;;;;;;;2.50;2.00;;;14.90;99.90;;;;;;5070111;28;20813;-49
2022/09/03 01:57:39;;;;;;;2.00;1.80;;;15.00;99.90;;;;;;5040580;28;20819;-48
2022/09/03 02:00:09;;;;;;;5.00;1.50;;;15.00;99.90;;;;;;5060899;28;20839;-48
2022/09/03 02:02:37;;;;;;;2.53;1.10;;;14.40;99.90;;;;;;5069922;28;20444;-49
2022/09/03 02:05:08;;;;;;;3.33;1.97;;;14.60;99.90;;;;;;5069663;28;20455;-48
2022/09/03 02:07:37;;;;;;;2.60;1.53;;;14.40;99.90;;;;;;5070131;28;20478;-49
2022/09/03 02:10:08;;;;;;;3.72;1.60;;;14.60;99.90;;;;;;5069311;28;20493;-49
2022/09/03 02:12:37;;;;;;;1.70;1.20;;;14.40;99.90;;;;;;5070007;28;20190;-49
2022/09/03 02:15:07;;;;;;;4.40;1.70;;;14.50;99.90;;;;;;5069535;28;20823;-49
2022/09/03 02:17:35;;;;;;;1.90;1.30;;;14.70;99.90;;;;;;5070012;28;20457;-48
2022/09/03 02:20:09;;;;;;;2.53;1.57;;;14.90;99.90;;;;;;5069240;28;20933;-49
2022/09/03 02:22:36;;;;;;;1.90;1.40;;;14.30;99.90;;;;;;5069870;28;20459;-49
2022/09/03 02:25:03;;;;;;;2.50;1.40;;;14.40;99.90;;;;;;5070119;28;20808;-49
2022/09/03 02:27:31;;;;;;;2.37;1.60;;;14.30;99.90;;;;;;5069113;28;21016;-48
2022/09/03 02:29:59;;;;;;;2.90;1.70;;;14.40;99.90;;;;;;5069080;28;20455;-49
2022/09/03 02:32:26;;;;;;;1.90;1.50;;;14.60;99.90;;;;;;5069781;28;20209;-49
2022/09/03 02:34:53;;;;;;;1.65;1.15;;;14.80;99.90;;;;;;5069797;28;20466;-48
2022/09/03 02:37:23;;;;;;;2.07;1.47;;;14.90;99.90;;;;;;5069838;28;20239;-49
2022/09/03 02:39:50;;;;;;;3.20;1.97;;;14.90;99.90;;;;;;5069157;28;20452;-49
2022/09/03 02:42:19;;;;;;;2.30;1.30;;;14.90;99.90;;;;;;5069616;28;20431;-48
2022/09/03 02:44:51;;;;;;;2.30;1.50;;;14.50;99.90;;;;;;5069565;28;20476;-49
2022/09/03 02:47:19;;;;;;;3.58;1.30;;;14.50;99.90;;;;;;5069873;28;20482;-48
2022/09/03 02:49:46;;;;;;;1.60;1.00;;;14.60;99.90;;;;;;5069092;28;20193;-48
2022/09/03 02:52:13;;;;;;;2.07;1.20;;;14.40;99.90;;;;;;5069468;28;20436;-49
2022/09/03 02:54:44;;;;;;;2.27;1.30;;;14.50;99.90;;;;;;5069505;28;20449;-49
2022/09/03 02:57:12;;;;;;;3.80;1.88;;;14.80;99.90;;;;;;5069624;28;20460;-49
2022/09/03 02:59:40;;;;;;;1.80;1.30;;;14.90;99.90;;;;;;5068795;28;20192;-50
2022/09/03 03:02:07;;;;;;;2.10;1.47;;;14.70;99.90;;;;;;5069678;28;20963;-49
2022/09/03 03:04:34;;;;;;;2.00;1.47;;;14.70;99.90;;;;;;5067746;28;20445;-49
2022/09/03 03:07:01;;;;;;;2.20;1.40;;;14.90;99.90;;;;;;5069289;28;20538;-48
2022/09/03 03:09:28;;;;;;;2.30;1.20;;;15.00;99.90;;;;;;5071079;28;20467;-49
2022/09/03 03:11:57;;;;;;;2.37;1.40;;;15.00;99.90;;;;;;5073329;28;20784;-49
2022/09/03 03:14:24;;;;;;;5.10;1.70;;;14.90;99.90;;;;;;5073149;28;20504;-48
2022/09/03 03:16:51;;;;;;;2.67;1.70;;;14.30;99.90;;;;;;5073671;28;20501;-49
2022/09/03 03:19:19;;;;;;;2.97;1.63;;;14.30;99.90;;;;;;5072458;28;20450;-49
2022/09/03 03:21:46;;;;;;;2.80;2.00;;;14.10;99.90;;;;;;5072942;28;20202;-49
2022/09/03 03:24:13;;;;;;;2.47;1.80;;;14.70;99.90;;;;;;5073217;28;20476;-48
2022/09/03 03:26:40;;;;;;;2.10;1.77;;;14.90;99.90;;;;;;5072325;28;20471;-50
2022/09/03 03:29:13;;;;;;;2.00;1.47;;;15.00;99.90;;;;;;5072243;28;20433;-47
2022/09/03 03:31:40;;;;;;;2.57;1.60;;;14.90;99.90;;;;;;5072921;28;20934;-48
2022/09/03 03:34:08;;;;;;;2.93;1.77;;;14.80;99.90;;;;;;5072858;28;20472;-48
2022/09/03 03:36:36;;;;;;;2.10;1.50;;;14.90;99.90;;;;;;5073638;28;20507;-48
2022/09/03 03:39:03;;;;;;;4.23;1.80;;;14.70;99.90;;;;;;5072220;28;20517;-48
2022/09/03 03:41:32;;;;;;;1.93;1.50;;;14.60;99.90;;;;;;5072868;28;20445;-50
2022/09/03 03:44:01;;;;;;;2.73;1.47;;;14.80;99.90;;;;;;5072591;28;20725;-49
2022/09/03 03:46:32;;;;;;;2.30;1.65;;;14.60;99.90;;;;;;5072640;28;20515;-48
2022/09/03 03:48:59;;;;;;;3.50;1.93;;;14.40;99.90;;;;;;5071989;28;20998;-49
2022/09/03 03:51:27;;;;;;;2.70;1.87;;;14.30;99.90;;;;;;5072561;28;20989;-49
2022/09/03 03:53:56;;;;;;;2.57;1.37;;;14.40;99.90;;;;;;5072439;28;20453;-49
2022/09/03 03:56:25;;;;;;;2.00;1.50;;;14.40;99.90;;;;;;5072871;28;20890;-49
2022/09/03 03:58:52;;;;;;;4.10;1.93;;;14.50;99.90;;;;;;5071728;28;20206;-48
2022/09/03 04:01:21;;;;;;;3.60;1.70;;;14.80;99.90;;;;;;5072480;28;20448;-50
2022/09/03 04:03:50;;;;;;;2.50;1.57;;;14.80;99.90;;;;;;5070719;28;20459;-48
2022/09/03 04:06:19;;;;;;;2.30;1.97;;;15.00;99.90;;;;;;5072816;28;20452;-48
2022/09/03 04:08:47;;;;;;;2.63;1.77;;;15.00;99.90;;;;;;5071692;28;20440;-47
2022/09/03 04:11:16;;;;;;;2.23;1.60;;;14.70;99.90;;;;;;5072000;28;20775;-49
2022/09/03 04:13:45;;;;;;;3.50;1.77;;;14.70;99.90;;;;;;5072301;28;20518;-49
2022/09/03 04:16:14;;;;;;;4.20;1.90;;;14.90;99.90;;;;;;5072171;28;20513;-49
2022/09/03 04:18:42;;;;;;;3.40;2.03;;;15.00;99.90;;;;;;5071808;28;20436;-47
2022/09/03 04:21:11;;;;;;;2.80;1.73;;;14.90;99.90;;;;;;5070793;28;20444;-50
2022/09/03 04:23:40;;;;;;;2.23;1.63;;;14.90;99.90;;;;;;5073042;28;20493;-48
2022/09/03 04:26:09;;;;;;;2.13;1.67;;;14.90;99.90;;;;;;5071345;28;20929;-49
2022/09/03 04:28:36;;;;;;;3.70;1.70;;;14.70;99.90;;;;;;5071705;28;20570;-49
2022/09/03 04:31:04;;;;;;;1.87;1.40;;;14.50;99.90;;;;;;5071353;28;20433;-49
2022/09/03 04:33:31;;;;;;;3.17;1.87;;;14.40;99.90;;;;;;5071803;28;20529;-49
2022/09/03 04:36:07;;;;;;;3.13;1.53;;;14.70;99.90;;;;;;5071812;28;20498;-49
2022/09/03 04:38:37;;;;;;;3.40;1.10;;;14.50;99.90;;;;;;5071713;28;20447;-50
2022/09/03 04:41:05;;;;;;;3.20;1.30;;;14.20;99.90;;;;;;5071247;28;20449;-48
2022/09/03 04:43:32;;;;;;;3.55;2.20;;;14.30;99.90;;;;;;5071721;28;20548;-48
2022/09/03 04:46:00;;;;;;;1.70;1.50;;;14.40;99.90;;;;;;5071798;28;20226;-50
2022/09/03 04:48:27;;;;;;;2.10;1.70;;;14.40;99.90;;;;;;5071391;28;20472;-49
2022/09/03 04:50:55;;;;;;;1.50;1.17;;;14.50;99.90;;;;;;5070702;28;20486;-50
2022/09/03 04:53:22;;;;;;;2.03;1.52;;;14.40;99.90;;;;;;5071250;28;20467;-48
2022/09/03 04:55:51;;;;;;;2.13;1.40;;;14.40;99.90;;;;;;5071389;28;20810;-48
2022/09/03 04:58:18;;;;;;;2.67;1.37;;;14.70;99.90;;;;;;5071566;28;20938;-48
2022/09/03 05:00:45;;;;;;;1.97;1.47;;;14.40;99.90;;;;;;5070648;28;21119;-49
2022/09/03 05:03:12;;;;;;;2.50;1.87;;;14.50;99.90;;;;;;5069518;28;21043;-49
2022/09/03 05:05:39;;;;;;;2.30;1.37;;;14.60;99.90;;;;;;5071286;28;20448;-49
2022/09/03 05:08:06;;;;;;;2.17;1.63;;;14.40;99.90;;;;;;5070947;28;20472;-48
2022/09/03 05:10:33;;;;;;;2.37;1.60;;;13.90;99.90;;;;;;5070495;28;20445;-49
2022/09/03 05:13:04;;;;;;;2.00;1.80;;;13.80;99.90;;;;;;5070899;28;20452;-49
2022/09/03 05:15:32;;;;;;;2.20;1.40;;;13.90;99.90;;;;;;5071219;28;20445;-48
2022/09/03 05:17:59;;;;;;;2.30;1.90;;;13.90;99.90;;;;;;5070977;28;20449;-49
2022/09/03 05:20:28;;;;;;;3.87;1.80;;;13.90;99.90;;;;;;5070173;28;20435;-49
2022/09/03 05:22:56;;;;;;;1.90;1.20;;;13.90;99.90;;;;;;5070597;28;20472;-48
2022/09/03 05:25:24;;;;;;;1.60;1.20;;;14.10;99.90;;;;;;5070950;28;20523;-49
2022/09/03 05:27:53;;;;;;;3.43;1.70;;;13.90;99.90;;;;;;5070417;28;20480;-48
2022/09/03 05:30:22;;;;;;;3.40;1.50;;;13.70;99.90;;;;;;5069807;28;20460;-49
2022/09/03 05:32:49;;;;;;;4.60;1.90;;;13.80;99.90;;;;;;5070362;28;20475;-49
2022/09/03 05:35:16;;;;;;;2.73;2.10;;;13.80;99.90;;;;;;5070625;28;20490;-48
2022/09/03 05:37:43;;;;;;;2.23;1.60;;;13.90;99.90;;;;;;5070630;28;20451;-48
2022/09/03 05:40:11;;;;;;;3.60;1.70;;;14.40;99.90;;;;;;5069821;28;20443;-50
2022/09/03 05:42:38;;;;;;;3.33;1.73;;;14.10;99.90;;;;;;5070526;28;20934;-48
2022/09/03 05:45:09;;;;;;;2.10;1.80;;;14.40;99.90;;;;;;5070425;28;20497;-48
2022/09/03 05:47:39;;;;;;;2.60;1.50;;;14.30;99.90;;;;;;5070338;28;20479;-49
2022/09/03 05:50:09;;;;;;;2.73;1.77;;;14.50;99.90;;;;;;5069479;28;20467;-49
2022/09/03 05:52:36;;;;;;;2.57;1.90;;;14.30;99.90;;;;;;5070177;28;20904;-50
2022/09/03 05:55:04;;;;;;;2.30;1.70;;;14.30;99.90;;;;;;5070108;28;20435;-50
2022/09/03 05:57:32;;;;;;;2.00;1.43;;;14.20;99.90;;;;;;5070802;28;20560;-49
2022/09/03 05:59:59;;;;;;;2.40;1.97;;;14.00;99.90;;;;;;5069997;28;20457;-48
2022/09/03 06:02:26;;;;;;;3.93;2.40;;;13.70;99.90;;;;;;5070392;28;20480;-48
2022/09/03 06:04:56;;;;;;;2.00;1.70;;;14.00;99.90;;;;;;5068755;28;20457;-50
2022/09/03 06:07:24;;;;;;;3.67;2.33;;;14.10;99.90;;;;;;5069915;28;21041;-50
2022/09/03 06:09:51;;;;;;;2.13;1.88;;;14.10;99.90;;;;;;5069477;28;20440;-50
2022/09/03 06:12:18;;;;;;;2.37;1.50;;;13.90;99.90;;;;;;5070295;28;20204;-48
2022/09/03 06:14:45;;;;;;;3.10;1.67;;;14.00;99.90;;;;;;5070139;28;20469;-50
2022/09/03 06:17:13;;;;;;;3.53;2.00;;;14.00;99.90;;;;;;5069426;28;20445;-49
2022/09/03 06:19:40;;;;;;;2.70;1.90;;;13.90;99.90;;;;;;5069571;28;20448;-48
2022/09/03 06:22:09;;;;;;;3.17;2.17;;;13.90;99.90;;;;;;5070224;28;20860;-49
2022/09/03 06:24:36;;;;;;;4.10;2.17;;;13.80;99.90;;;;;;5069809;28;20794;-48
2022/09/03 06:27:03;;;;;;;2.10;1.90;;;13.70;99.90;;;;;;5069341;28;20444;-49
2022/09/03 06:29:30;;;;;;;3.63;2.00;;;14.20;99.90;;;;;;5069170;28;20838;-48
2022/09/03 06:31:58;;;;;;;4.43;2.27;;;14.30;99.90;;;;;;5069850;28;20448;-49
2022/09/03 06:34:26;;;;;;;3.60;2.03;;;14.10;99.90;;;;;;5069800;28;20517;-48
2022/09/03 06:36:53;;;;;;;4.33;2.40;;;14.20;99.90;;;;;;5069824;28;20448;-48
2022/09/03 06:39:21;;;;;;;3.00;1.93;;;14.20;99.90;;;;;;5068979;28;20900;-48
2022/09/03 06:41:50;;;;;;;3.10;2.40;;;14.20;99.90;;;;;;5069585;28;20433;-49
2022/09/03 06:44:18;;;;;;;2.63;2.20;;;14.40;99.90;;;;;;5071439;28;21058;-50
2022/09/03 06:46:46;;;;;;;2.30;1.90;;;14.50;99.90;;;;;;5073784;28;20812;-47
2022/09/03 06:49:13;;;;;;;4.33;2.73;;;14.50;99.90;;;;;;5072938;28;20879;-49
2022/09/03 06:51:42;;;;;;;3.30;2.17;;;14.70;99.90;;;;;;5073730;28;20444;-49
2022/09/03 06:54:10;;;;;;;4.00;2.70;;;14.50;99.90;;;;;;5073875;28;20484;-49
2022/09/03 06:56:40;;;;;;;5.23;3.03;;;14.30;99.90;;;;;;5073957;28;20449;-49
2022/09/03 06:59:09;;;;;;;4.85;2.90;;;13.90;99.90;;;;;;5073032;28;20449;-49
2022/09/03 07:01:39;;;;;;;5.27;2.93;;;14.10;99.90;;;;;;5073495;28;20631;-49
2022/09/03 07:04:08;;;;;;;3.13;2.77;;;14.30;99.90;;;;;;5072079;28;20841;-49
2022/09/03 07:06:37;;;;;;;5.33;2.70;;;14.50;99.90;;;;;;5073423;28;20520;-49
2022/09/03 07:09:04;;;;;;;3.70;2.30;;;14.60;99.90;;;;;;5072917;28;20973;-50
2022/09/03 07:11:32;;;;;;;4.10;2.35;;;14.80;99.90;;;;;;5073271;28;20843;-49
2022/09/03 07:14:00;;;;;;;8.93;2.60;;;15.00;99.90;;;;;;5073471;28;20226;-50
2022/09/03 07:16:29;;;;;;;2.50;1.77;;;15.00;99.90;;;;;;5072195;28;20494;-50
2022/09/03 07:18:57;;;;;;;2.90;2.00;;;15.00;99.90;;;;;;5072622;28;20509;-49
2022/09/03 07:21:26;;;;;;;3.83;3.03;;;15.30;99.90;;;;;;5073061;28;20436;-49
2022/09/03 07:23:54;;;;;;;3.10;2.57;;;15.20;99.90;;;;;;5073008;28;20545;-48
2022/09/03 07:26:24;;;;;;;2.80;2.13;;;15.50;99.90;;;;;;5072061;28;20448;-49
2022/09/03 07:28:52;;;;;;;2.03;1.80;;;15.40;99.90;;;;;;5072192;28;20479;-49
2022/09/03 07:31:24;;;;;;;2.90;1.90;;;15.40;99.90;;;;;;5072975;28;20492;-49
2022/09/03 07:33:54;;;;;;;2.83;2.30;;;15.10;99.90;;;;;;5072936;28;20482;-49
2022/09/03 07:36:22;;;;;;;2.80;2.30;;;15.20;99.90;;;;;;5072375;28;20452;-49
2022/09/03 07:38:49;;;;;;;2.43;2.13;;;15.50;99.90;;;;;;5072272;28;20440;-49
2022/09/03 07:41:16;;;;;;;2.63;2.27;;;15.50;99.90;;;;;;5072817;28;20448;-48
2022/09/03 07:43:45;;;;;;;3.60;2.10;;;15.50;99.90;;;;;;5072654;28;20526;-48
2022/09/03 07:46:13;;;;;;;2.20;1.90;;;15.50;99.90;;;;;;5072621;28;20433;-50
2022/09/03 07:48:42;;;;;;;4.10;2.10;;;15.60;99.90;;;;;;5072283;28;21081;-47
2022/09/03 07:51:10;;;;;;;2.57;2.23;;;15.70;99.90;;;;;;5072155;28;20471;-50
2022/09/03 07:53:37;;;;;;;3.00;2.50;;;15.90;99.90;;;;;;5072529;28;20469;-50
2022/09/03 07:56:06;;;;;;;1.83;1.63;;;15.90;99.90;;;;;;5072395;28;21009;-49
2022/09/03 07:58:34;;;;;;;3.10;1.97;;;15.90;99.90;;;;;;5072435;28;20453;-49
2022/09/03 08:01:07;;;;;;;2.25;1.90;;;16.20;99.90;;;;;;5056204;28;20505;-49
2022/09/03 08:03:35;;;;;;;8.05;3.17;;;16.60;99.90;;;;;;5052152;28;20222;-49
2022/09/03 08:06:04;;;;;;;2.92;2.63;;;16.60;99.90;;;;;;5052384;28;20303;-49
2022/09/03 08:08:32;;;;;;;3.00;2.50;;;16.70;99.90;;;;;;5052268;28;20260;-49
2022/09/03 08:11:08;;;;;;;3.72;2.35;;;16.70;99.90;;;;;;5051538;28;20536;-49
2022/09/03 08:13:35;;;;;;;5.20;2.10;;;16.70;99.90;;;;;;5050729;28;20723;-49
2022/09/03 08:16:02;;;;;;;3.57;2.53;;;16.70;99.90;;;;;;5056794;28;20476;-49
2022/09/03 08:18:36;;;;;;;2.20;1.80;;;16.80;99.90;;;;;;5061001;28;20454;-49
2022/09/03 08:21:08;;;;;;;2.80;2.17;;;16.60;99.90;;;;;;5054709;28;20453;-49
2022/09/03 08:23:37;;;;;;;3.23;1.83;;;16.70;99.90;;;;;;5051649;28;20469;-50
2022/09/03 08:26:05;;;;;;;3.87;2.17;;;17.00;99.90;;;;;;5052038;28;20487;-49
2022/09/03 08:28:33;;;;;;;4.00;2.00;;;16.80;99.90;;;;;;5051769;28;20523;-50
2022/09/03 08:31:06;;;;;;;3.00;2.00;;;16.60;99.90;;;;;;5051106;28;20445;-51
2022/09/03 08:33:39;;;;;;;2.50;2.00;;;16.80;99.90;;;;;;5051811;28;20477;-49
2022/09/03 08:36:11;;;;;;;4.37;2.47;;;16.90;99.90;;;;;;5051732;28;20441;-48
2022/09/03 08:38:39;;;;;;;4.87;2.50;;;17.00;99.90;;;;;;5051134;28;20417;-47
2022/09/03 08:41:10;;;;;;;2.20;2.00;;;17.40;99.90;;;;;;5051039;28;20430;-49
2022/09/03 08:43:54;;;;;;;3.13;2.60;;;17.70;99.90;;;;;;5052057;28;20977;-51
2022/09/03 08:46:24;;;;;;;3.70;3.20;;;17.70;99.90;;;;;;5051685;28;20969;-49
2022/09/03 08:48:52;;;;;;;3.97;2.43;;;17.60;99.90;;;;;;5050764;28;20484;-49
2022/09/03 08:51:26;;;;;;;3.03;2.45;;;17.40;99.90;;;;;;5051704;28;20930;-49
2022/09/03 08:53:56;;;;;;;2.83;2.23;;;17.50;99.90;;;;;;5047066;28;20222;-50
2022/09/03 08:56:27;;;;;;;3.20;2.27;;;17.60;99.90;;;;;;5071102;28;20474;-49
2022/09/03 08:58:55;;;;;;;2.87;2.37;;;17.80;99.90;;;;;;5070682;28;20437;-49
2022/09/03 09:01:33;;;;;;;4.20;2.27;;;17.60;99.90;;;;;;5070852;28;20455;-49
2022/09/03 09:04:10;;;;;;;2.50;2.30;;;17.50;99.90;;;;;;5071219;28;20475;-49
2022/09/03 09:06:45;;;;;;;5.00;2.00;;;17.60;99.90;;;;;;5070718;28;20456;-48
2022/09/03 09:09:24;;;;;;;4.73;2.60;;;17.70;99.90;;;;;;5070360;28;20471;-49
2022/09/03 09:12:07;;;;;;;2.77;2.10;;;17.60;99.90;;;;;;5071154;28;20448;-50
2022/09/03 09:14:39;;;;;;;3.20;2.20;;;17.80;99.90;;;;;;5070106;28;20969;-49
2022/09/03 09:17:26;;;;;;;3.05;2.38;;;18.00;99.90;;;;;;5071069;28;20509;-49
2022/09/03 09:20:06;;;;;;;2.80;2.10;;;18.10;99.90;;;;;;5070243;28;20202;-49
2022/09/03 09:22:38;;;;;;;3.13;2.10;;;18.50;99.90;;;;;;5070551;28;20449;-49
2022/09/03 09:25:13;;;;;;;2.67;2.37;;;18.40;99.90;;;;;;5070252;28;20198;-48
2022/09/03 09:27:50;;;;;;;2.50;2.00;;;18.30;99.90;;;;;;5070965;28;20432;-50
2022/09/03 09:30:18;;;;;;;4.00;2.28;;;18.40;99.90;;;;;;5069867;28;20473;-49
2022/09/03 09:32:46;;;;;;;2.50;2.30;;;18.50;99.90;;;;;;5070633;28;20206;-49
2022/09/03 09:35:14;;;;;;;29.13;3.00;;;18.50;99.90;;;;;;5070535;28;20433;-49
2022/09/03 09:37:53;;;;;;;2.60;2.00;;;18.50;99.90;;;;;;5069366;28;20448;-49
2022/09/03 09:40:31;;;;;;;2.40;2.20;;;18.50;99.90;;;;;;5069874;28;20436;-49
2022/09/03 09:43:06;;;;;;;2.67;2.40;;;18.60;99.90;;;;;;5070413;28;20976;-49
2022/09/03 09:45:34;;;;;;;2.97;2.50;;;18.70;99.90;;;;;;5070315;28;20436;-50
2022/09/03 09:48:02;;;;;;;64.90;15.37;;;18.80;99.90;;;;;;5070318;28;20558;-50
2022/09/03 09:50:30;;;;;;;7.80;3.00;;;18.80;99.90;;;;;;5068897;28;20532;-49
2022/09/03 09:53:04;;;;;;;3.60;2.60;;;18.60;99.90;;;;;;5070441;28;20475;-50
2022/09/03 09:55:32;;;;;;;503.73;62.53;;;18.60;99.90;;;;;;5069722;28;20433;-49
2022/09/03 09:58:08;;;;;;;37.47;9.90;;;18.70;99.90;;;;;;5070180;28;20466;-49
2022/09/03 10:00:36;;;;;;;177.43;29.63;;;18.90;99.90;;;;;;5069098;28;20483;-50
2022/09/03 10:03:12;;;;;;;119.05;25.63;;;19.00;99.90;;;;;;5069503;28;20502;-49
2022/09/03 10:05:39;;;;;;;28.10;7.07;;;19.10;99.90;;;;;;5070105;28;20201;-49
2022/09/03 10:08:21;;;;;;;7.13;2.53;;;19.10;99.90;;;;;;5070301;28;20198;-50
2022/09/03 10:10:50;;;;;;;4.45;2.75;;;19.20;99.90;;;;;;5069452;28;20433;-49
2022/09/03 10:13:20;;;;;;;4.63;2.90;;;19.20;99.90;;;;;;5067691;28;20225;-50
2022/09/03 10:15:51;;;;;;;3.87;2.80;;;19.20;99.90;;;;;;5070151;28;20523;-49
2022/09/03 10:18:28;;;;;;;3.27;2.83;;;19.00;99.90;;;;;;5069250;28;20527;-49
2022/09/03 10:21:03;;;;;;;2.87;2.20;;;19.00;99.90;;;;;;5068651;28;20623;-49
2022/09/03 10:23:35;;;;;;;2.47;2.27;;;18.80;99.90;;;;;;5083267;23;20936;-49
2022/09/03 10:26:07;;;;;;;2.87;2.67;;;18.80;99.90;;;;;;5048309;28;20495;-49
2022/09/03 10:28:40;;;;;;;2.20;1.97;;;18.90;99.90;;;;;;5049572;28;20535;-49
2022/09/03 10:31:39;;;;;;;2.43;2.23;;;19.10;99.90;;;;;;5049523;28;20457;-49
2022/09/03 10:34:12;;;;;;;4.85;3.00;;;19.10;99.90;;;;;;5045931;28;20536;-49
2022/09/03 10:36:48;;;;;;;3.60;2.43;;;19.30;99.90;;;;;;5049676;28;20567;-49
2022/09/03 10:39:23;;;;;;;2.90;2.47;;;19.30;99.90;;;;;;5049125;28;20856;-49
2022/09/03 10:42:05;;;;;;;29.37;5.73;;;19.10;99.90;;;;;;5049579;28;20449;-49
2022/09/03 10:44:51;;;;;;;5.68;2.70;;;19.10;99.90;;;;;;5048825;28;20456;-49
2022/09/03 10:47:37;;;;;;;3.53;3.23;;;19.10;99.90;;;;;;5048755;28;20222;-49
2022/09/03 10:50:15;;;;;;;3.10;2.63;;;19.20;99.90;;;;;;5048498;28;20856;-49
2022/09/03 10:52:59;;;;;;;2.83;2.50;;;19.20;99.90;;;;;;5049599;28;20469;-48
2022/09/03 10:55:40;;;;;;;2.70;2.50;;;19.10;99.90;;;;;;5049268;28;20465;-49
2022/09/03 10:58:23;;;;;;;2.97;2.50;;;19.20;99.90;;;;;;5049393;28;20499;-48
2022/09/03 11:00:54;;;;;;;3.10;2.53;;;19.30;99.90;;;;;;5048205;28;20498;-49
2022/09/03 11:03:46;;;;;;;3.33;3.03;;;19.30;99.90;;;;;;5049457;28;20257;-49
2022/09/03 11:06:19;;;;;;;3.80;2.83;;;19.40;99.90;;;;;;5041388;28;20448;-49
2022/09/03 11:08:53;;;;;;;3.33;2.63;;;19.40;99.90;;;;;;5048799;28;20524;-47
2022/09/03 11:11:27;;;;;;;2.80;2.60;;;19.60;99.90;;;;;;5049565;28;20803;-49
2022/09/03 11:13:58;;;;;;;3.00;2.63;;;19.60;99.90;;;;;;5049197;28;20521;-50
2022/09/03 11:16:28;;;;;;;3.20;2.90;;;19.60;99.90;;;;;;5049470;28;20459;-49
2022/09/03 11:19:00;;;;;;;3.90;2.90;;;19.60;99.90;;;;;;5048820;28;20490;-49
2022/09/03 11:21:30;;;;;;;3.30;3.00;;;19.60;99.90;;;;;;5049507;28;20498;-49
2022/09/03 11:24:05;;;;;;;2.80;2.60;;;19.50;99.90;;;;;;5048428;28;20523;-49
2022/09/03 11:26:35;;;;;;;3.33;2.93;;;19.50;99.90;;;;;;5046528;28;20440;-49
2022/09/03 11:29:09;;;;;;;3.27;2.87;;;19.50;99.90;;;;;;5047925;28;20477;-49
2022/09/03 11:31:57;;;;;;;2.93;2.63;;;19.40;99.90;;;;;;5050902;28;20445;-49
2022/09/03 11:34:30;;;;;;;3.30;3.00;;;19.40;99.90;;;;;;5049954;28;20469;-49
2022/09/03 11:37:17;;;;;;;3.20;2.90;;;19.30;99.90;;;;;;5052383;28;20968;-50
2022/09/03 11:39:45;;;;;;;5.05;3.15;;;19.30;99.90;;;;;;5051642;28;20913;-49
2022/09/03 11:42:29;;;;;;;3.60;2.80;;;19.30;99.90;;;;;;5053007;28;20199;-49
2022/09/03 11:45:13;;;;;;;2.88;2.55;;;19.40;99.90;;;;;;5052379;28;20993;-49
2022/09/03 11:47:43;;;;;;;3.47;2.97;;;19.50;99.90;;;;;;5052778;28;20203;-49
2022/09/03 11:50:20;;;;;;;3.60;2.63;;;19.40;99.90;;;;;;5051609;28;20215;-49
2022/09/03 11:52:50;;;;;;;3.07;2.77;;;19.40;99.90;;;;;;5052271;28;20503;-46
2022/09/03 11:55:31;;;;;;;3.00;2.70;;;19.40;99.90;;;;;;5051546;28;20864;-49
2022/09/03 11:58:10;;;;;;;2.97;2.60;;;19.50;99.90;;;;;;5052354;28;20969;-49
2022/09/03 12:00:38;;;;;;;2.80;2.60;;;19.60;99.90;;;;;;5050727;28;20206;-49
2022/09/03 12:03:05;;;;;;;3.23;2.93;;;19.50;99.90;;;;;;5052074;28;20889;-49
2022/09/03 12:05:42;;;;;;;3.40;3.03;;;19.50;99.90;;;;;;5052417;28;20506;-49
2022/09/03 12:08:27;;;;;;;3.27;2.97;;;19.50;99.90;;;;;;5051891;28;20487;-49
2022/09/03 12:11:04;;;;;;;5.40;3.30;;;19.50;99.90;;;;;;5051492;28;20795;-49
2022/09/03 12:13:46;;;;;;;3.70;2.80;;;19.40;99.90;;;;;;5051070;28;20453;-49
2022/09/03 12:16:38;;;;;;;4.17;3.77;;;19.40;99.90;;;;;;5049017;28;20441;-49
2022/09/03 12:19:15;;;;;;;3.40;2.97;;;19.40;99.90;;;;;;5050976;28;20492;-49
2022/09/03 12:21:43;;;;;;;3.70;3.40;;;19.40;99.90;;;;;;5050101;28;20828;-49
2022/09/03 12:24:12;;;;;;;3.50;2.80;;;19.50;99.90;;;;;;5050690;28;20465;-49
2022/09/03 12:26:41;;;;;;;3.33;2.73;;;19.40;99.90;;;;;;5051540;28;20442;-48
2022/09/03 12:29:24;;;;;;;3.03;2.60;;;19.50;99.90;;;;;;5050459;28;20483;-49
2022/09/03 12:31:53;;;;;;;3.37;2.90;;;19.60;99.90;;;;;;5051359;28;20454;-49
2022/09/03 12:34:21;;;;;;;3.63;3.20;;;19.60;99.90;;;;;;5051262;28;20453;-49
2022/09/03 12:36:50;;;;;;;3.30;2.93;;;19.80;99.90;;;;;;5051843;28;20448;-49
2022/09/03 12:39:19;;;;;;;5.30;3.40;;;19.80;99.90;;;;;;5050837;28;20475;-49
2022/09/03 12:42:00;;;;;;;3.50;3.07;;;19.90;99.90;;;;;;5050805;28;20511;-48
2022/09/03 12:44:30;;;;;;;3.77;3.20;;;20.10;99.90;;;;;;5051480;28;20464;-49
2022/09/03 12:47:02;;;;;;;3.93;3.40;;;20.20;99.90;;;;;;5051526;28;20457;-48
2022/09/03 12:49:35;;;;;;;7.07;3.70;;;20.40;99.90;;;;;;5050921;28;20465;-48
2022/09/03 12:52:11;;;;;;;4.70;3.27;;;20.40;99.90;;;;;;5051329;28;20948;-48
2022/09/03 12:54:43;;;;;;;3.90;3.40;;;20.30;99.90;;;;;;5050006;28;20479;-48
2022/09/03 12:57:10;;;;;;;4.93;3.00;;;20.30;99.90;;;;;;5051422;28;20207;-49
2022/09/03 12:59:39;;;;;;;5.23;4.23;;;20.30;99.90;;;;;;5050733;28;20487;-48
2022/09/03 13:02:16;;;;;;;4.70;3.37;;;20.30;99.90;;;;;;5051345;28;20498;-48
2022/09/03 13:04:45;;;;;;;3.13;2.87;;;20.30;99.90;;;;;;5051148;28;20457;-48
2022/09/03 13:07:20;;;;;;;3.20;2.90;;;20.30;99.90;;;;;;5051310;28;20449;-48
2022/09/03 13:09:47;;;;;;;4.13;3.20;;;20.40;99.90;;;;;;5050495;28;20570;-48